createdAt,value
2022-10-18T00:01:02.208Z,15.60
2022-10-18T00:02:35.881Z,15.60
2022-10-18T00:04:09.475Z,15.60
2022-10-18T00:05:41.965Z,15.60
2022-10-18T00:07:15.300Z,15.60
2022-10-18T00:08:49.490Z,15.60
2022-10-18T00:10:24.551Z,15.60
2022-10-18T00:11:59.424Z,15.60
2022-10-18T00:13:34.050Z,15.60
2022-10-18T00:15:10.149Z,15.60
2022-10-18T00:16:43.532Z,15.50
2022-10-18T00:18:16.984Z,15.60
2022-10-18T00:19:50.375Z,15.60
2022-10-18T00:21:25.869Z,15.50
2022-10-18T00:22:59.215Z,15.50
2022-10-18T00:24:32.515Z,15.50
2022-10-18T00:26:08.523Z,15.50
2022-10-18T00:27:43.544Z,15.50
2022-10-18T00:29:18.990Z,15.50
2022-10-18T00:30:51.327Z,15.50
2022-10-18T00:32:24.994Z,15.50
2022-10-18T00:34:03.156Z,15.50
2022-10-18T00:35:35.396Z,15.40
2022-10-18T00:37:09.035Z,15.40
2022-10-18T00:38:42.634Z,15.40
2022-10-18T00:40:16.031Z,15.40
2022-10-18T00:41:50.238Z,15.40
2022-10-18T00:43:23.954Z,15.40
2022-10-18T00:45:16.243Z,15.40
2022-10-18T00:46:51.823Z,15.40
2022-10-18T00:48:25.455Z,15.40
2022-10-18T00:50:04.651Z,15.40
2022-10-18T00:51:44.123Z,15.40
2022-10-18T00:53:23.298Z,15.30
2022-10-18T00:54:57.390Z,15.30
2022-10-18T00:56:31.471Z,15.30
2022-10-18T00:58:06.922Z,15.30
2022-10-18T00:59:42.416Z,15.30
2022-10-18T01:01:25.820Z,15.30
2022-10-18T01:03:07.043Z,15.30
2022-10-18T01:04:45.131Z,15.30
2022-10-18T01:06:22.935Z,15.30
2022-10-18T01:08:22.234Z,15.30
2022-10-18T01:10:14.258Z,15.30
2022-10-18T01:12:23.056Z,15.30
2022-10-18T01:14:18.413Z,15.30
2022-10-18T01:16:04.114Z,15.30
2022-10-18T01:17:57.105Z,15.30
2022-10-18T01:20:08.220Z,15.30
2022-10-18T01:21:51.163Z,15.20
2022-10-18T01:23:50.197Z,15.20
2022-10-18T01:25:47.360Z,15.20
2022-10-18T01:27:46.395Z,15.20
2022-10-18T01:29:36.684Z,15.20
2022-10-18T01:31:16.701Z,15.20
2022-10-18T01:32:54.185Z,15.20
2022-10-18T01:34:34.693Z,15.20
2022-10-18T01:36:18.565Z,15.10
2022-10-18T01:37:56.293Z,15.20
2022-10-18T01:39:35.944Z,15.20
2022-10-18T01:41:15.625Z,15.20
2022-10-18T01:42:51.186Z,15.10
2022-10-18T01:44:28.101Z,15.10
2022-10-18T01:46:03.199Z,15.20
2022-10-18T01:47:38.232Z,15.10
2022-10-18T01:49:11.611Z,15.10
2022-10-18T01:50:45.011Z,15.10
2022-10-18T01:52:18.368Z,15.10
2022-10-18T01:53:52.011Z,15.10
2022-10-18T01:55:33.324Z,15.10
2022-10-18T01:57:13.460Z,15.20
2022-10-18T01:59:01.968Z,15.20
2022-10-18T02:00:44.436Z,15.10
2022-10-18T02:02:34.519Z,15.10
2022-10-18T02:04:25.624Z,15.10
2022-10-18T02:06:06.475Z,15.10
2022-10-18T02:07:55.329Z,15.10
2022-10-18T02:09:50.249Z,15.10
2022-10-18T02:11:22.944Z,15.10
2022-10-18T02:12:58.527Z,15.10
2022-10-18T02:14:33.995Z,15.10
2022-10-18T02:16:12.968Z,15.10
2022-10-18T02:17:46.419Z,15.10
2022-10-18T02:19:31.079Z,15.20
2022-10-18T02:21:08.263Z,15.10
2022-10-18T02:22:45.915Z,15.10
2022-10-18T02:24:21.038Z,15.10
2022-10-18T02:25:55.053Z,15.10
2022-10-18T02:27:28.495Z,15.10
2022-10-18T02:29:02.621Z,15.00
2022-10-18T02:30:45.676Z,15.10
2022-10-18T02:32:27.408Z,15.10
2022-10-18T02:34:09.423Z,15.10
2022-10-18T02:35:49.907Z,15.10
2022-10-18T02:37:23.729Z,15.20
2022-10-18T02:39:07.234Z,15.10
2022-10-18T02:40:40.482Z,15.10
2022-10-18T02:42:15.732Z,15.10
2022-10-18T02:43:47.979Z,15.10
2022-10-18T02:45:21.488Z,15.10
2022-10-18T02:46:54.552Z,15.10
2022-10-18T02:48:27.808Z,15.00
2022-10-18T02:50:01.060Z,15.10
2022-10-18T02:51:35.883Z,15.00
2022-10-18T02:53:09.104Z,15.10
2022-10-18T02:54:42.344Z,15.10
2022-10-18T02:56:16.535Z,15.00
2022-10-18T02:57:49.960Z,15.00
2022-10-18T02:59:56.097Z,15.00
2022-10-18T03:01:29.741Z,15.00
2022-10-18T03:03:03.139Z,15.00
2022-10-18T03:04:35.633Z,15.10
2022-10-18T03:06:08.965Z,15.00
2022-10-18T03:07:43.864Z,15.00
2022-10-18T03:09:17.053Z,15.00
2022-10-18T03:10:49.439Z,15.00
2022-10-18T03:12:22.728Z,15.00
2022-10-18T03:13:56.092Z,15.00
2022-10-18T03:15:28.517Z,15.00
2022-10-18T03:17:05.036Z,15.00
2022-10-18T03:18:38.323Z,14.90
2022-10-18T03:20:13.780Z,15.00
2022-10-18T03:21:46.996Z,15.00
2022-10-18T03:23:20.708Z,15.00
2022-10-18T03:24:54.231Z,15.00
2022-10-18T03:26:27.692Z,15.00
2022-10-18T03:28:00.006Z,15.00
2022-10-18T03:29:33.410Z,15.10
2022-10-18T03:31:06.199Z,15.00
2022-10-18T03:32:40.070Z,15.00
2022-10-18T03:34:13.275Z,15.00
2022-10-18T03:35:45.619Z,15.00
2022-10-18T03:37:18.853Z,15.10
2022-10-18T03:38:53.693Z,15.00
2022-10-18T03:40:27.307Z,15.00
2022-10-18T03:42:00.640Z,15.00
2022-10-18T03:43:33.901Z,15.00
2022-10-18T03:45:08.994Z,15.00
2022-10-18T03:46:42.343Z,14.90
2022-10-18T03:48:15.823Z,15.00
2022-10-18T03:49:52.009Z,15.00
2022-10-18T03:51:28.002Z,15.00
2022-10-18T03:53:00.234Z,14.90
2022-10-18T03:54:35.098Z,15.00
2022-10-18T03:56:08.519Z,14.90
2022-10-18T03:57:42.526Z,14.90
2022-10-18T03:59:16.983Z,14.90
2022-10-18T04:00:51.812Z,14.90
2022-10-18T04:02:25.315Z,14.90
2022-10-18T04:03:57.551Z,15.00
2022-10-18T04:05:31.458Z,14.90
2022-10-18T04:07:04.931Z,14.90
2022-10-18T04:08:38.983Z,14.90
2022-10-18T04:10:13.529Z,14.90
2022-10-18T04:11:46.910Z,14.90
2022-10-18T04:13:19.355Z,14.90
2022-10-18T04:14:54.600Z,14.90
2022-10-18T04:16:29.210Z,14.90
2022-10-18T04:18:03.468Z,14.90
2022-10-18T04:19:36.836Z,14.90
2022-10-18T04:21:10.149Z,14.90
2022-10-18T04:22:43.540Z,14.90
2022-10-18T04:24:18.571Z,14.90
2022-10-18T04:25:52.499Z,14.90
2022-10-18T04:27:26.296Z,14.80
2022-10-18T04:28:59.690Z,14.80
2022-10-18T04:30:33.155Z,14.80
2022-10-18T04:32:06.968Z,14.80
2022-10-18T04:33:40.732Z,14.80
2022-10-18T04:35:14.094Z,14.80
2022-10-18T04:36:47.300Z,14.80
2022-10-18T04:38:21.155Z,14.90
2022-10-18T04:39:54.681Z,14.80
2022-10-18T04:41:29.475Z,14.80
2022-10-18T04:43:02.791Z,14.80
2022-10-18T04:44:36.437Z,14.80
2022-10-18T04:46:09.742Z,14.80
2022-10-18T04:47:43.242Z,14.80
2022-10-18T04:49:16.692Z,14.80
2022-10-18T04:50:51.221Z,14.90
2022-10-18T04:52:24.542Z,14.80
2022-10-18T04:53:58.302Z,14.80
2022-10-18T04:55:31.598Z,14.80
2022-10-18T04:57:05.523Z,14.80
2022-10-18T04:58:38.880Z,14.80
2022-10-18T05:00:14.400Z,14.80
2022-10-18T05:01:47.739Z,14.70
2022-10-18T05:03:21.340Z,14.70
2022-10-18T05:04:54.630Z,14.70
2022-10-18T05:06:27.923Z,14.70
2022-10-18T05:08:01.702Z,14.70
2022-10-18T05:09:35.170Z,14.80
2022-10-18T05:12:49.365Z,14.70
2022-10-18T05:14:22.707Z,14.70
2022-10-18T05:15:56.403Z,14.70
2022-10-18T05:17:29.658Z,14.70
2022-10-18T05:19:05.188Z,14.70
2022-10-18T05:20:38.612Z,14.80
2022-10-18T05:22:11.965Z,14.70
2022-10-18T05:23:45.679Z,14.70
2022-10-18T05:25:19.174Z,14.70
2022-10-18T05:26:52.428Z,14.70
2022-10-18T05:28:39.183Z,14.70
2022-10-18T05:30:13.667Z,14.70
2022-10-18T05:31:47.108Z,14.70
2022-10-18T05:33:22.171Z,14.70
2022-10-18T05:34:55.468Z,14.70
2022-10-18T05:36:29.157Z,14.70
2022-10-18T05:38:03.976Z,14.70
2022-10-18T05:39:38.942Z,14.70
2022-10-18T05:41:13.553Z,14.70
2022-10-18T05:42:46.843Z,14.70
2022-10-18T05:44:21.664Z,14.70
2022-10-18T05:45:55.042Z,14.70
2022-10-18T05:47:28.426Z,14.70
2022-10-18T05:49:01.806Z,14.70
2022-10-18T05:50:38.077Z,14.70
2022-10-18T05:52:13.539Z,14.70
2022-10-18T05:53:47.140Z,14.70
2022-10-18T05:55:19.572Z,14.70
2022-10-18T05:56:53.237Z,14.70
2022-10-18T05:58:26.514Z,14.80
2022-10-18T06:00:01.166Z,14.70
2022-10-18T06:01:34.584Z,14.70
2022-10-18T06:03:08.832Z,14.70
2022-10-18T06:04:42.047Z,14.70
2022-10-18T06:06:16.463Z,14.70
2022-10-18T06:07:49.674Z,14.70
2022-10-18T06:09:23.351Z,14.70
2022-10-18T06:10:57.171Z,14.70
2022-10-18T06:12:30.720Z,14.70
2022-10-18T06:14:04.981Z,14.70
2022-10-18T06:15:39.668Z,14.70
2022-10-18T06:17:12.984Z,14.70
2022-10-18T06:18:49.985Z,14.70
2022-10-18T06:20:23.258Z,14.70
2022-10-18T06:21:56.575Z,14.70
2022-10-18T06:23:30.267Z,14.70
2022-10-18T06:25:03.830Z,14.70
2022-10-18T06:26:37.232Z,14.80
2022-10-18T06:28:12.201Z,14.70
2022-10-18T06:29:45.851Z,14.80
2022-10-18T06:31:21.638Z,14.70
2022-10-18T06:32:54.978Z,14.70
2022-10-18T06:34:28.530Z,14.80
2022-10-18T06:36:05.195Z,14.80
2022-10-18T06:37:38.627Z,14.80
2022-10-18T06:39:12.199Z,14.80
2022-10-18T06:40:48.171Z,14.80
2022-10-18T06:42:22.698Z,14.80
2022-10-18T06:43:58.528Z,14.80
2022-10-18T06:45:32.705Z,14.80
2022-10-18T06:47:09.388Z,14.80
2022-10-18T06:48:42.677Z,14.80
2022-10-18T06:50:16.311Z,14.80
2022-10-18T06:51:49.540Z,14.80
2022-10-18T06:53:22.912Z,14.80
2022-10-18T06:54:56.227Z,14.80
2022-10-18T06:56:30.043Z,14.80
2022-10-18T06:58:03.328Z,14.90
2022-10-18T06:59:36.730Z,14.80
2022-10-18T07:01:12.973Z,14.80
2022-10-18T07:02:47.772Z,14.90
2022-10-18T07:04:21.486Z,14.90
2022-10-18T07:05:54.751Z,14.80
2022-10-18T07:07:28.099Z,14.90
2022-10-18T07:09:02.987Z,14.80
2022-10-18T07:10:36.532Z,14.90
2022-10-18T07:12:11.971Z,14.80
2022-10-18T07:13:46.019Z,14.90
2022-10-18T07:15:19.889Z,14.90
2022-10-18T07:16:53.448Z,14.90
2022-10-18T07:18:27.827Z,14.90
2022-10-18T07:20:01.179Z,14.80
2022-10-18T07:21:34.747Z,14.90
2022-10-18T07:23:09.487Z,14.90
2022-10-18T07:24:43.048Z,14.90
2022-10-18T07:26:19.494Z,14.90
2022-10-18T07:27:53.108Z,14.90
2022-10-18T07:29:26.597Z,14.90
2022-10-18T07:31:06.408Z,15.00
2022-10-18T07:32:39.740Z,14.90
2022-10-18T07:34:14.943Z,14.90
2022-10-18T07:35:48.823Z,14.90
2022-10-18T07:37:25.386Z,14.90
2022-10-18T07:39:01.305Z,14.90
2022-10-18T07:40:34.824Z,15.00
2022-10-18T07:42:08.311Z,14.90
2022-10-18T07:43:44.388Z,14.90
2022-10-18T07:45:18.277Z,14.90
2022-10-18T07:46:51.522Z,14.90
2022-10-18T07:48:25.650Z,14.90
2022-10-18T07:50:00.877Z,14.90
2022-10-18T07:51:36.013Z,14.90
2022-10-18T07:53:09.241Z,14.90
2022-10-18T07:54:42.570Z,15.00
2022-10-18T07:56:21.232Z,14.90
2022-10-18T07:57:54.624Z,15.00
2022-10-18T07:59:28.109Z,15.00
2022-10-18T08:01:04.553Z,14.90
2022-10-18T08:02:38.542Z,15.00
2022-10-18T08:04:16.192Z,15.10
2022-10-18T08:05:56.657Z,15.00
2022-10-18T08:07:30.289Z,15.10
2022-10-18T08:09:04.014Z,15.10
2022-10-18T08:10:37.840Z,15.00
2022-10-18T08:12:11.455Z,15.10
2022-10-18T08:13:45.303Z,15.00
2022-10-18T08:15:18.828Z,15.10
2022-10-18T08:16:52.251Z,15.10
2022-10-18T08:18:25.592Z,15.10
2022-10-18T08:20:11.633Z,15.10
2022-10-18T08:21:53.683Z,15.20
2022-10-18T08:23:27.308Z,15.20
2022-10-18T08:25:00.794Z,15.20
2022-10-18T08:26:34.355Z,15.20
2022-10-18T08:28:08.609Z,15.20
2022-10-18T08:29:42.124Z,15.20
2022-10-18T08:31:19.868Z,15.20
2022-10-18T08:32:53.487Z,15.20
2022-10-18T08:34:27.179Z,15.20
2022-10-18T08:36:02.671Z,15.30
2022-10-18T08:37:37.520Z,15.30
2022-10-18T08:39:10.922Z,15.30
2022-10-18T08:40:45.204Z,15.20
2022-10-18T08:42:39.531Z,15.30
2022-10-18T08:44:20.638Z,15.30
2022-10-18T08:45:55.724Z,15.30
2022-10-18T08:47:37.583Z,15.30
2022-10-18T08:49:28.409Z,15.30
2022-10-18T08:51:04.338Z,15.30
2022-10-18T08:52:51.772Z,15.30
2022-10-18T08:54:36.114Z,15.30
2022-10-18T08:56:14.932Z,15.40
2022-10-18T08:57:50.749Z,15.40
2022-10-18T08:59:25.509Z,15.40
2022-10-18T09:01:13.944Z,15.40
2022-10-18T09:03:08.454Z,15.40
2022-10-18T09:04:53.551Z,15.50
2022-10-18T09:06:35.003Z,15.40
2022-10-18T09:08:38.240Z,15.40
2022-10-18T09:10:33.392Z,15.50
2022-10-18T09:12:35.962Z,15.50
2022-10-18T09:15:06.464Z,15.50
2022-10-18T09:16:50.435Z,15.50
2022-10-18T09:18:49.556Z,15.50
2022-10-18T09:20:27.659Z,15.50
2022-10-18T09:22:13.232Z,15.50
2022-10-18T09:23:50.366Z,15.50
2022-10-18T09:25:26.928Z,15.50
2022-10-18T09:27:06.646Z,15.50
2022-10-18T09:28:57.151Z,15.50
2022-10-18T09:30:44.719Z,15.50
2022-10-18T09:32:35.394Z,15.50
2022-10-18T09:34:22.287Z,15.50
2022-10-18T09:36:00.030Z,15.50
2022-10-18T09:37:35.971Z,15.50
2022-10-18T09:39:16.144Z,15.50
2022-10-18T09:40:57.491Z,15.50
2022-10-18T09:42:38.087Z,15.50
2022-10-18T09:44:20.490Z,15.60
2022-10-18T09:45:56.297Z,15.50
2022-10-18T09:47:38.161Z,15.50
2022-10-18T09:49:20.383Z,15.60
2022-10-18T09:51:01.799Z,15.60
2022-10-18T09:52:43.692Z,15.60
2022-10-18T09:54:32.280Z,15.60
2022-10-18T09:56:12.057Z,15.60
2022-10-18T09:57:53.277Z,15.60
2022-10-18T09:59:38.283Z,15.60
2022-10-18T10:01:16.463Z,15.70
2022-10-18T10:02:49.758Z,15.60
2022-10-18T10:04:23.290Z,15.60
2022-10-18T10:06:16.836Z,15.60
2022-10-18T10:07:50.526Z,15.70
2022-10-18T10:09:30.574Z,15.70
2022-10-18T10:11:04.008Z,15.70
2022-10-18T10:12:40.505Z,15.70
2022-10-18T10:14:23.037Z,15.70
2022-10-18T10:15:59.199Z,15.80
2022-10-18T10:17:33.941Z,15.70
2022-10-18T10:19:07.464Z,15.80
2022-10-18T10:20:46.574Z,15.80
2022-10-18T10:22:29.311Z,15.90
2022-10-18T10:24:04.171Z,15.80
2022-10-18T10:25:39.816Z,15.80
2022-10-18T10:27:22.432Z,15.90
2022-10-18T10:28:56.193Z,15.90
2022-10-18T10:30:33.366Z,15.90
2022-10-18T10:32:05.764Z,15.90
2022-10-18T10:33:39.983Z,15.90
2022-10-18T10:35:41.570Z,15.90
2022-10-18T10:37:36.112Z,15.90
2022-10-18T10:39:18.253Z,15.90
2022-10-18T10:40:53.520Z,15.90
2022-10-18T10:42:27.219Z,15.90
2022-10-18T10:44:06.220Z,16.00
2022-10-18T10:45:56.728Z,15.90
2022-10-18T10:47:33.427Z,16.00
2022-10-18T10:49:38.525Z,16.00
2022-10-18T10:51:07.256Z,16.00
2022-10-18T10:52:43.561Z,16.00
2022-10-18T10:54:21.432Z,16.10
2022-10-18T10:55:59.001Z,16.10
2022-10-18T10:57:33.628Z,16.10
2022-10-18T10:59:16.767Z,16.10
2022-10-18T11:00:50.150Z,16.10
2022-10-18T11:02:32.274Z,16.20
2022-10-18T11:04:28.794Z,16.20
2022-10-18T11:06:02.336Z,16.20
2022-10-18T11:07:42.327Z,16.20
2022-10-18T11:09:46.219Z,16.30
2022-10-18T11:11:27.685Z,16.30
2022-10-18T11:13:16.116Z,16.30
2022-10-18T11:15:00.519Z,16.40
2022-10-18T11:16:43.556Z,16.50
2022-10-18T11:18:25.018Z,16.40
2022-10-18T11:20:24.005Z,16.40
2022-10-18T11:21:59.476Z,16.50
2022-10-18T11:23:35.305Z,16.50
2022-10-18T11:25:16.617Z,16.50
2022-10-18T11:27:02.039Z,16.50
2022-10-18T11:28:59.155Z,16.50
2022-10-18T11:30:59.118Z,16.60
2022-10-18T11:32:43.769Z,16.60
2022-10-18T11:34:50.040Z,16.70
2022-10-18T11:36:33.978Z,16.70
2022-10-18T11:38:35.654Z,16.80
2022-10-18T11:40:36.359Z,16.90
2022-10-18T11:42:23.271Z,16.90
2022-10-18T11:44:03.351Z,17.00
2022-10-18T11:45:50.645Z,17.10
2022-10-18T11:47:37.954Z,17.00
2022-10-18T11:49:38.739Z,17.00
2022-10-18T11:51:29.787Z,17.10
2022-10-18T11:53:25.175Z,17.10
2022-10-18T11:55:20.071Z,17.20
2022-10-18T11:57:07.328Z,17.20
2022-10-18T11:59:03.036Z,17.20
2022-10-18T12:00:49.854Z,17.30
2022-10-18T12:03:04.179Z,17.30
2022-10-18T12:04:58.369Z,17.30
2022-10-18T12:06:44.058Z,17.30
2022-10-18T12:08:24.404Z,17.30
2022-10-18T12:10:00.450Z,17.30
2022-10-18T12:11:45.398Z,17.30
2022-10-18T12:13:26.680Z,17.30
2022-10-18T12:15:17.018Z,17.30
2022-10-18T12:16:58.425Z,17.30
2022-10-18T12:18:54.046Z,17.30
2022-10-18T12:20:34.531Z,17.20
2022-10-18T12:22:19.296Z,17.30
2022-10-18T12:23:59.654Z,17.20
2022-10-18T12:25:39.615Z,17.30
2022-10-18T12:27:16.965Z,17.30
2022-10-18T12:29:09.101Z,17.30
2022-10-18T12:30:54.830Z,17.30
2022-10-18T12:32:34.562Z,17.30
2022-10-18T12:34:30.252Z,17.30
2022-10-18T12:36:20.964Z,17.30
2022-10-18T12:38:15.788Z,17.30
2022-10-18T12:40:12.438Z,17.30
2022-10-18T12:41:49.459Z,17.40
2022-10-18T12:43:27.640Z,17.40
2022-10-18T12:45:19.140Z,17.40
2022-10-18T12:46:57.520Z,17.40
2022-10-18T12:48:38.661Z,17.40
2022-10-18T12:50:36.093Z,17.40
2022-10-18T12:52:24.162Z,17.50
2022-10-18T12:54:12.655Z,17.50
2022-10-18T12:55:49.720Z,17.50
2022-10-18T12:57:24.992Z,17.50
2022-10-18T12:59:53.735Z,17.60
2022-10-18T13:02:20.696Z,17.60
2022-10-18T13:03:58.543Z,17.60
2022-10-18T13:05:58.430Z,17.60
2022-10-18T13:07:42.953Z,17.60
2022-10-18T13:09:22.327Z,17.60
2022-10-18T13:11:36.770Z,17.60
2022-10-18T13:13:40.628Z,17.70
2022-10-18T13:15:40.542Z,17.70
2022-10-18T13:17:30.060Z,17.70
2022-10-18T13:19:23.262Z,17.70
2022-10-18T13:21:12.923Z,17.80
2022-10-18T13:23:04.549Z,17.70
2022-10-18T13:24:45.823Z,17.80
2022-10-18T13:26:35.179Z,17.80
2022-10-18T13:28:36.187Z,17.80
2022-10-18T13:30:49.599Z,17.90
2022-10-18T13:32:33.212Z,17.90
2022-10-18T13:34:28.053Z,17.90
2022-10-18T13:36:04.272Z,17.90
2022-10-18T13:37:38.228Z,17.90
2022-10-18T13:39:20.996Z,17.90
2022-10-18T13:41:03.807Z,17.90
2022-10-18T13:42:37.352Z,17.90
2022-10-18T13:44:25.074Z,17.90
2022-10-18T13:46:00.238Z,18.00
2022-10-18T13:47:40.199Z,18.00
2022-10-18T13:49:35.253Z,17.90
2022-10-18T13:51:36.456Z,18.00
2022-10-18T13:53:44.159Z,18.00
2022-10-18T13:55:44.643Z,18.00
2022-10-18T13:57:33.468Z,18.00
2022-10-18T13:59:52.818Z,18.00
2022-10-18T14:01:42.448Z,18.00
2022-10-18T14:03:57.658Z,18.00
2022-10-18T14:05:56.308Z,18.00
2022-10-18T14:07:30.283Z,17.90
2022-10-18T14:09:19.601Z,18.00
2022-10-18T14:11:05.979Z,18.00
2022-10-18T14:12:45.107Z,17.90
2022-10-18T14:14:26.522Z,17.90
2022-10-18T14:16:10.664Z,17.90
2022-10-18T14:17:50.392Z,17.90
2022-10-18T14:19:33.260Z,17.80
2022-10-18T14:21:16.085Z,17.90
2022-10-18T14:23:03.264Z,17.80
2022-10-18T14:24:39.563Z,17.80
2022-10-18T14:26:16.718Z,17.80
2022-10-18T14:27:53.682Z,17.80
2022-10-18T14:29:27.849Z,17.70
2022-10-18T14:31:06.198Z,17.70
2022-10-18T14:32:51.332Z,17.70
2022-10-18T14:34:25.249Z,17.60
2022-10-18T14:36:10.355Z,17.60
2022-10-18T14:37:49.747Z,17.60
2022-10-18T14:39:29.055Z,17.50
2022-10-18T14:41:16.422Z,17.50
2022-10-18T14:42:50.137Z,17.40
2022-10-18T14:44:28.231Z,17.40
2022-10-18T14:46:19.170Z,17.50
2022-10-18T14:47:53.811Z,17.40
2022-10-18T14:49:27.883Z,17.30
2022-10-18T14:51:03.577Z,17.30
2022-10-18T14:52:37.095Z,17.30
2022-10-18T14:54:17.370Z,17.20
2022-10-18T14:56:00.697Z,17.30
2022-10-18T14:57:38.111Z,17.20
2022-10-18T14:59:19.574Z,17.20
2022-10-18T15:00:54.157Z,17.20
2022-10-18T15:02:30.862Z,17.10
2022-10-18T15:04:11.208Z,17.10
2022-10-18T15:05:56.147Z,17.10
2022-10-18T15:07:30.346Z,17.10
2022-10-18T15:09:06.548Z,17.00
2022-10-18T15:10:39.944Z,17.00
2022-10-18T15:12:16.706Z,17.00
2022-10-18T15:13:55.733Z,16.90
2022-10-18T15:15:33.703Z,16.80
2022-10-18T15:17:21.781Z,16.80
2022-10-18T15:19:08.055Z,16.70
2022-10-18T15:20:42.829Z,16.70
2022-10-18T15:22:31.778Z,16.70
2022-10-18T15:24:32.444Z,16.60
2022-10-18T15:26:10.985Z,16.50
2022-10-18T15:27:48.542Z,16.50
2022-10-18T15:29:24.718Z,16.50
2022-10-18T15:30:59.136Z,16.50
2022-10-18T15:32:33.207Z,16.30
2022-10-18T15:34:17.877Z,16.30
2022-10-18T15:35:53.064Z,16.20
2022-10-18T15:37:34.295Z,16.20
2022-10-18T15:39:15.501Z,16.20
2022-10-18T15:40:49.224Z,16.20
2022-10-18T15:42:40.607Z,16.10
2022-10-18T15:44:31.502Z,16.10
2022-10-18T15:46:07.056Z,16.00
2022-10-18T15:47:40.646Z,16.00
2022-10-18T15:49:58.454Z,15.90
2022-10-18T15:51:49.330Z,15.90
2022-10-18T15:53:46.084Z,15.90
2022-10-18T15:55:50.058Z,15.80
2022-10-18T15:57:27.799Z,15.80
2022-10-18T15:59:24.611Z,15.70
2022-10-18T16:01:04.304Z,15.70
2022-10-18T16:02:42.473Z,15.60
2022-10-18T16:04:25.249Z,15.60
2022-10-18T16:06:08.687Z,15.60
2022-10-18T16:07:47.309Z,15.50
2022-10-18T16:09:23.514Z,15.50
2022-10-18T16:10:57.316Z,15.40
2022-10-18T16:12:30.943Z,15.40
2022-10-18T16:14:04.561Z,15.40
2022-10-18T16:15:50.175Z,15.40
2022-10-18T16:17:27.296Z,15.30
2022-10-18T16:19:07.052Z,15.30
2022-10-18T16:20:43.341Z,15.30
2022-10-18T16:22:20.029Z,15.20
2022-10-18T16:23:54.192Z,15.20
2022-10-18T16:25:31.185Z,15.20
2022-10-18T16:27:09.641Z,15.20
2022-10-18T16:28:49.249Z,15.10
2022-10-18T16:30:35.758Z,15.10
2022-10-18T16:32:13.947Z,15.10
2022-10-18T16:33:48.955Z,15.00
2022-10-18T16:35:22.590Z,15.00
2022-10-18T16:36:56.884Z,14.90
2022-10-18T16:38:35.284Z,14.90
2022-10-18T16:40:24.877Z,14.80
2022-10-18T16:41:58.200Z,14.80
2022-10-18T16:43:32.292Z,14.70
2022-10-18T16:45:06.333Z,14.70
2022-10-18T16:46:40.827Z,14.60
2022-10-18T16:48:16.926Z,14.60
2022-10-18T16:49:50.381Z,14.50
2022-10-18T16:51:26.847Z,14.50
2022-10-18T16:53:00.271Z,14.40
2022-10-18T16:54:35.728Z,14.40
2022-10-18T16:56:16.824Z,14.30
2022-10-18T16:57:51.352Z,14.30
2022-10-18T16:59:28.733Z,14.20
2022-10-18T17:01:04.176Z,14.20
2022-10-18T17:02:40.223Z,14.10
2022-10-18T17:04:13.626Z,14.10
2022-10-18T17:05:47.130Z,14.00
2022-10-18T17:07:26.021Z,14.00
2022-10-18T17:09:00.716Z,13.90
2022-10-18T17:10:35.429Z,13.90
2022-10-18T17:12:08.680Z,13.80
2022-10-18T17:13:42.393Z,13.80
2022-10-18T17:15:16.210Z,13.70
2022-10-18T17:16:53.798Z,13.60
2022-10-18T17:18:35.821Z,13.60
2022-10-18T17:20:10.806Z,13.60
2022-10-18T17:21:44.360Z,13.50
2022-10-18T17:23:17.755Z,13.50
2022-10-18T17:24:51.488Z,13.40
2022-10-18T17:26:30.103Z,13.40
2022-10-18T17:28:07.568Z,13.40
2022-10-18T17:29:41.825Z,13.30
2022-10-18T17:31:16.615Z,13.30
2022-10-18T17:32:50.023Z,13.30
2022-10-18T17:34:26.904Z,13.20
2022-10-18T17:36:11.254Z,13.10
2022-10-18T17:37:51.841Z,13.10
2022-10-18T17:39:27.045Z,13.10
2022-10-18T17:41:00.534Z,13.00
2022-10-18T17:42:37.351Z,13.00
2022-10-18T17:44:14.880Z,13.00
2022-10-18T17:45:50.245Z,12.90
2022-10-18T17:47:28.091Z,13.00
2022-10-18T17:49:01.469Z,12.90
2022-10-18T17:50:35.523Z,12.90
2022-10-18T17:52:11.627Z,12.80
2022-10-18T17:53:45.340Z,12.70
2022-10-18T17:55:19.119Z,12.80
2022-10-18T17:56:53.885Z,12.70
2022-10-18T17:58:29.429Z,12.70
2022-10-18T18:00:03.713Z,12.60
2022-10-18T18:01:57.050Z,12.60
2022-10-18T18:03:30.639Z,12.50
2022-10-18T18:05:05.909Z,12.50
2022-10-18T18:06:40.158Z,12.40
2022-10-18T18:08:13.752Z,12.40
2022-10-18T18:09:47.831Z,12.40
2022-10-18T18:11:21.112Z,12.30
2022-10-18T18:12:54.510Z,12.30
2022-10-18T18:14:28.057Z,12.30
2022-10-18T18:16:15.959Z,12.20
2022-10-18T18:17:56.977Z,12.20
2022-10-18T18:19:32.399Z,12.20
2022-10-18T18:21:05.886Z,12.10
2022-10-18T18:22:41.754Z,12.10
2022-10-18T18:24:17.079Z,12.00
2022-10-18T18:25:57.321Z,12.00
2022-10-18T18:27:30.592Z,11.90
2022-10-18T18:29:04.304Z,12.00
2022-10-18T18:30:41.161Z,11.90
2022-10-18T18:32:14.909Z,11.90
2022-10-18T18:33:49.500Z,11.80
2022-10-18T18:35:22.779Z,11.90
2022-10-18T18:36:56.263Z,11.70
2022-10-18T18:38:30.424Z,11.70
2022-10-18T18:40:03.902Z,11.70
2022-10-18T18:41:38.376Z,11.60
2022-10-18T18:43:23.253Z,11.60
2022-10-18T18:44:57.232Z,11.60
2022-10-18T18:46:36.609Z,11.50
2022-10-18T18:48:16.363Z,11.50
2022-10-18T18:49:53.852Z,11.60
2022-10-18T18:51:28.052Z,11.40
2022-10-18T18:53:01.391Z,11.40
2022-10-18T18:54:34.732Z,11.30
2022-10-18T18:56:10.455Z,11.30
2022-10-18T18:57:44.050Z,11.30
2022-10-18T18:59:18.466Z,11.20
2022-10-18T19:00:52.081Z,11.20
2022-10-18T19:02:25.429Z,11.20
2022-10-18T19:04:01.011Z,11.20
2022-10-18T19:05:36.207Z,11.10
2022-10-18T19:07:09.812Z,11.10
2022-10-18T19:08:46.797Z,11.10
2022-10-18T19:10:20.255Z,11.00
2022-10-18T19:11:56.145Z,11.00
2022-10-18T19:13:29.819Z,11.00
2022-10-18T19:15:03.222Z,10.90
2022-10-18T19:16:39.125Z,10.90
2022-10-18T19:18:12.599Z,10.80
2022-10-18T19:19:46.600Z,10.80
2022-10-18T19:21:21.165Z,10.70
2022-10-18T19:22:54.607Z,10.70
2022-10-18T19:24:31.117Z,10.70
2022-10-18T19:26:10.828Z,10.70
2022-10-18T19:27:44.856Z,10.60
2022-10-18T19:29:21.427Z,10.60
2022-10-18T19:30:56.018Z,10.60
2022-10-18T19:34:10.577Z,10.50
2022-10-18T19:35:44.167Z,10.50
2022-10-18T19:37:19.375Z,10.50
2022-10-18T19:38:52.904Z,10.40
2022-10-18T19:40:26.638Z,10.40
2022-10-18T19:42:03.157Z,10.30
2022-10-18T19:43:36.225Z,10.30
2022-10-18T19:45:10.982Z,10.30
2022-10-18T19:46:44.851Z,10.20
2022-10-18T19:48:18.224Z,10.20
2022-10-18T19:49:52.619Z,10.20
2022-10-18T19:51:28.350Z,10.10
2022-10-18T19:53:03.656Z,10.10
2022-10-18T19:54:37.448Z,10.10
2022-10-18T19:56:19.222Z,10.00
2022-10-18T19:57:52.594Z,10.00
2022-10-18T19:59:26.196Z,9.90
2022-10-18T20:01:02.169Z,9.90
2022-10-18T20:02:35.892Z,9.90
2022-10-18T20:04:11.147Z,9.90
2022-10-18T20:05:44.468Z,9.90
2022-10-18T20:07:17.879Z,9.90
2022-10-18T20:08:53.273Z,9.80
2022-10-18T20:10:26.597Z,9.80
2022-10-18T20:11:59.793Z,9.80
2022-10-18T20:13:33.691Z,9.80
2022-10-18T20:15:08.814Z,9.80
2022-10-18T20:16:42.120Z,9.70
2022-10-18T20:18:16.799Z,9.70
2022-10-18T20:19:50.270Z,9.70
2022-10-18T20:21:23.696Z,9.70
2022-10-18T20:22:57.021Z,9.60
2022-10-18T20:24:31.939Z,9.60
2022-10-18T20:26:07.156Z,9.60
2022-10-18T20:27:40.456Z,9.50
2022-10-18T20:29:14.128Z,9.50
2022-10-18T20:30:46.672Z,9.50
2022-10-18T20:32:19.998Z,9.50
2022-10-18T20:33:59.275Z,9.40
2022-10-18T20:35:33.250Z,9.40
2022-10-18T20:37:06.815Z,9.30
2022-10-18T20:38:42.556Z,9.30
2022-10-18T20:40:17.899Z,9.30
2022-10-18T20:41:51.178Z,9.30
2022-10-18T20:43:23.739Z,9.20
2022-10-18T20:44:57.032Z,9.20
2022-10-18T20:46:33.335Z,9.10
2022-10-18T20:48:05.795Z,9.20
2022-10-18T20:49:39.127Z,9.10
2022-10-18T20:51:13.878Z,9.10
2022-10-18T20:52:51.026Z,9.10
2022-10-18T20:54:24.696Z,9.00
2022-10-18T20:56:06.968Z,9.10
2022-10-18T20:57:40.918Z,9.00
2022-10-18T20:59:14.672Z,9.00
2022-10-18T21:00:48.455Z,9.00
2022-10-18T21:02:21.746Z,9.00
2022-10-18T21:03:57.463Z,9.00
2022-10-18T21:05:30.171Z,9.00
2022-10-18T21:07:03.956Z,8.90
2022-10-18T21:08:37.672Z,8.90
2022-10-18T21:10:11.115Z,8.90
2022-10-18T21:11:49.256Z,8.90
2022-10-18T21:13:22.696Z,8.90
2022-10-18T21:14:56.158Z,8.90
2022-10-18T21:16:30.327Z,8.80
2022-10-18T21:18:03.643Z,8.80
2022-10-18T21:19:37.069Z,8.90